Time;durP1;ratioP1;P1;durP2;ratioP2;P2;SDS_P1;SDS_P2;PMS_P1;PMS_P2;Temp;Humidity;BMP_temperature;BMP_pressure;BME280_temperature;BME280_humidity;BME280_pressure;Samples;Min_cycle;Max_cycle;Signal;HPM_P1;HPM_P2
2021/05/02 00:01:31;;;;;;;20.67;11.98;;;;;;;;;;5050555;28;20020;-85
2021/05/02 00:03:56;;;;;;;22.00;10.73;;;;;;;;;;5052283;28;20017;-85
2021/05/02 00:06:21;;;;;;;18.58;11.27;;;;;;;;;;5052507;28;20057;-85
2021/05/02 00:08:46;;;;;;;21.38;12.18;;;;;;;;;;5052067;28;20021;-86
2021/05/02 00:11:12;;;;;;;21.05;10.77;;;;;;;;;;5067358;28;20056;-86
2021/05/02 00:13:38;;;;;;;19.40;12.23;;;;;;;;;;5051737;28;20103;-85
2021/05/02 00:16:03;;;;;;;21.52;11.30;;;;;;;;;;5071452;28;20028;-85
2021/05/02 00:18:29;;;;;;;21.08;11.48;;;;;;;;;;5061440;28;20059;-86
2021/05/02 00:20:55;;;;;;;24.70;13.07;;;;;;;;;;5051412;28;20028;-85
2021/05/02 00:23:21;;;;;;;25.15;13.02;;;;;;;;;;5051505;28;20400;-83
2021/05/02 00:25:46;;;;;;;23.13;13.23;;;;;;;;;;5052485;28;20024;-86
2021/05/02 00:28:12;;;;;;;24.10;13.40;;;;;;;;;;5062428;28;20029;-85
2021/05/02 00:30:37;;;;;;;24.38;13.23;;;;;;;;;;5062664;28;20494;-86
2021/05/02 00:33:03;;;;;;;26.70;14.32;;;;;;;;;;5051184;28;20020;-84
2021/05/02 00:35:29;;;;;;;25.95;14.15;;;;;;;;;;5051967;28;20024;-86
2021/05/02 00:37:55;;;;;;;28.55;14.23;;;;;;;;;;5050902;28;20021;-86
2021/05/02 00:40:30;;;;;;;25.42;14.82;;;;;;;;;;5048115;28;20037;-85
2021/05/02 00:42:58;;;;;;;30.63;14.50;;;;;;;;;;5048738;28;20024;-86
2021/05/02 00:45:29;;;;;;;26.92;14.80;;;;;;;;;;5051222;28;20103;-86
2021/05/02 00:48:01;;;;;;;27.90;14.25;;;;;;;;;;5068645;28;20494;-86
2021/05/02 00:50:28;;;;;;;30.38;15.30;;;;;;;;;;5051222;28;20024;-86
2021/05/02 00:53:10;;;;;;;26.13;15.48;;;;;;;;;;5049481;28;20027;-86
2021/05/02 00:55:46;;;;;;;26.67;14.93;;;;;;;;;;5069477;28;20027;-86
2021/05/02 00:58:19;;;;;;;27.48;16.17;;;;;;;;;;5051362;28;20100;-86
2021/05/02 01:00:44;;;;;;;30.50;18.25;;;;;;;;;;5050252;28;20039;-86
2021/05/02 01:03:10;;;;;;;28.92;18.00;;;;;;;;;;5051720;28;20020;-86
2021/05/02 01:05:40;;;;;;;32.33;18.23;;;;;;;;;;5052092;28;20438;-85
2021/05/02 01:08:06;;;;;;;30.35;17.92;;;;;;;;;;5050844;28;20025;-86
2021/05/02 01:10:31;;;;;;;30.27;18.92;;;;;;;;;;5051358;28;20678;-86
2021/05/02 01:12:57;;;;;;;40.67;19.88;;;;;;;;;;5069394;28;20025;-86
2021/05/02 01:15:26;;;;;;;31.15;18.17;;;;;;;;;;5051083;28;20047;-86
2021/05/02 01:18:02;;;;;;;34.33;19.35;;;;;;;;;;5046033;28;20028;-85
2021/05/02 01:20:28;;;;;;;31.90;18.65;;;;;;;;;;5050877;28;20020;-86
2021/05/02 01:22:57;;;;;;;34.55;18.98;;;;;;;;;;5051058;28;20032;-85
2021/05/02 01:25:22;;;;;;;37.33;19.45;;;;;;;;;;5051668;28;20025;-87
2021/05/02 01:27:52;;;;;;;36.80;19.35;;;;;;;;;;5068895;28;20036;-85
2021/05/02 01:30:17;;;;;;;36.92;18.83;;;;;;;;;;5050998;28;20547;-86
2021/05/02 01:32:42;;;;;;;39.30;20.13;;;;;;;;;;5051766;28;20067;-86
2021/05/02 01:35:07;;;;;;;37.33;20.63;;;;;;;;;;5050173;28;20021;-86
2021/05/02 01:37:33;;;;;;;36.67;20.50;;;;;;;;;;5051594;28;20503;-86
2021/05/02 01:39:58;;;;;;;38.72;20.02;;;;;;;;;;5068707;28;20036;-86
2021/05/02 01:42:24;;;;;;;33.85;18.98;;;;;;;;;;5069434;28;20020;-87
2021/05/02 01:44:49;;;;;;;37.67;20.77;;;;;;;;;;5062258;28;20017;-86
2021/05/02 01:47:18;;;;;;;40.75;21.55;;;;;;;;;;5051362;28;20028;-86
2021/05/02 01:49:48;;;;;;;35.55;19.45;;;;;;;;;;5068614;28;20516;-86
2021/05/02 01:52:15;;;;;;;34.08;20.00;;;;;;;;;;5051359;28;20492;-85
2021/05/02 01:54:42;;;;;;;35.83;20.38;;;;;;;;;;5050267;28;20032;-86
2021/05/02 01:57:08;;;;;;;32.67;18.75;;;;;;;;;;5051023;28;20029;-86
2021/05/02 01:59:34;;;;;;;36.53;19.05;;;;;;;;;;5070072;28;20032;-86
2021/05/02 02:01:59;;;;;;;33.92;17.67;;;;;;;;;;5056113;28;20361;-87
2021/05/02 02:04:25;;;;;;;37.30;20.75;;;;;;;;;;5040062;28;20111;-85
2021/05/02 02:06:52;;;;;;;39.03;19.77;;;;;;;;;;5055027;28;20020;-86
2021/05/02 02:09:17;;;;;;;33.75;19.65;;;;;;;;;;5051558;28;20017;-85
2021/05/02 02:11:42;;;;;;;36.47;20.48;;;;;;;;;;5054861;28;20028;-86
2021/05/02 02:14:07;;;;;;;36.80;20.02;;;;;;;;;;5072813;28;20452;-85
2021/05/02 02:16:32;;;;;;;34.03;21.08;;;;;;;;;;5054907;28;20017;-87
2021/05/02 02:18:58;;;;;;;35.17;19.75;;;;;;;;;;5072862;28;20016;-86
2021/05/02 02:21:25;;;;;;;36.22;20.60;;;;;;;;;;5042517;28;20029;-86
2021/05/02 02:23:58;;;;;;;36.33;20.40;;;;;;;;;;5051307;28;20044;-86
2021/05/02 02:26:40;;;;;;;34.70;21.15;;;;;;;;;;5047539;28;20546;-87
2021/05/02 02:29:07;;;;;;;33.08;19.75;;;;;;;;;;5040913;28;20039;-87
2021/05/02 02:31:32;;;;;;;38.28;21.80;;;;;;;;;;5050781;28;20484;-87
2021/05/02 02:33:58;;;;;;;37.67;22.05;;;;;;;;;;5051599;28;20024;-87
2021/05/02 02:36:23;;;;;;;38.50;21.23;;;;;;;;;;5055480;28;20541;-87
2021/05/02 02:38:48;;;;;;;30.45;18.80;;;;;;;;;;5053601;28;20024;-87
2021/05/02 02:41:15;;;;;;;33.45;19.77;;;;;;;;;;5053290;28;20028;-85
2021/05/02 02:43:42;;;;;;;34.80;19.98;;;;;;;;;;5071740;28;20073;-86
2021/05/02 02:46:10;;;;;;;34.75;20.05;;;;;;;;;;5054342;28;20024;-86
2021/05/02 02:48:41;;;;;;;34.42;20.02;;;;;;;;;;5070181;28;20013;-86
2021/05/02 02:51:06;;;;;;;35.33;20.05;;;;;;;;;;5071710;28;20024;-86
2021/05/02 02:53:32;;;;;;;42.90;21.10;;;;;;;;;;5053283;28;20024;-85
2021/05/02 02:56:05;;;;;;;37.40;19.35;;;;;;;;;;5054831;28;20083;-86
2021/05/02 02:58:45;;;;;;;35.72;19.45;;;;;;;;;;5051961;28;20016;-85
2021/05/02 03:01:12;;;;;;;33.15;19.65;;;;;;;;;;5042287;28;20016;-86
2021/05/02 03:03:44;;;;;;;38.08;21.20;;;;;;;;;;5053176;28;20054;-85
2021/05/02 03:06:10;;;;;;;39.90;24.98;;;;;;;;;;5053411;28;20426;-86
2021/05/02 03:08:36;;;;;;;43.33;21.13;;;;;;;;;;5052360;28;20020;-85
2021/05/02 03:11:02;;;;;;;37.10;21.65;;;;;;;;;;5051410;28;20027;-86
2021/05/02 03:13:27;;;;;;;38.63;21.90;;;;;;;;;;5072779;28;20040;-86
2021/05/02 03:15:52;;;;;;;37.33;22.58;;;;;;;;;;5072430;28;20040;-85
2021/05/02 03:18:27;;;;;;;36.78;21.92;;;;;;;;;;5070921;28;20526;-86
2021/05/02 03:20:58;;;;;;;54.95;22.80;;;;;;;;;;5053468;28;20025;-86
2021/05/02 03:23:43;;;;;;;41.33;23.92;;;;;;;;;;5052816;28;21412;-86
2021/05/02 03:26:10;;;;;;;39.85;20.98;;;;;;;;;;5069390;28;20104;-86
2021/05/02 03:28:47;;;;;;;43.88;22.63;;;;;;;;;;5069257;28;20021;-86
2021/05/02 03:31:13;;;;;;;40.10;21.90;;;;;;;;;;5052209;28;20503;-87
2021/05/02 03:33:39;;;;;;;40.60;22.00;;;;;;;;;;5052374;28;20028;-86
2021/05/02 03:36:12;;;;;;;41.60;22.95;;;;;;;;;;5052258;28;20055;-86
2021/05/02 03:38:44;;;;;;;43.95;24.63;;;;;;;;;;5051686;28;20031;-86
2021/05/02 03:41:10;;;;;;;43.22;23.30;;;;;;;;;;5042519;28;20127;-85
2021/05/02 03:43:37;;;;;;;43.30;23.25;;;;;;;;;;5052222;28;20119;-86
2021/05/02 03:46:02;;;;;;;44.50;22.75;;;;;;;;;;5052651;28;20052;-85
2021/05/02 03:48:28;;;;;;;42.15;22.45;;;;;;;;;;5044062;28;20606;-86
2021/05/02 03:50:53;;;;;;;38.35;21.27;;;;;;;;;;5054484;28;20047;-85
2021/05/02 03:53:18;;;;;;;43.65;23.83;;;;;;;;;;5085900;28;20048;-85
2021/05/02 03:55:47;;;;;;;47.58;24.25;;;;;;;;;;5075938;28;20079;-85
2021/05/02 03:58:14;;;;;;;40.70;22.38;;;;;;;;;;5093001;28;20012;-86
2021/05/02 04:00:39;;;;;;;41.95;23.50;;;;;;;;;;5072424;28;20056;-85
2021/05/02 04:03:05;;;;;;;44.63;24.33;;;;;;;;;;5071929;28;20016;-86
2021/05/02 04:05:30;;;;;;;47.25;25.55;;;;;;;;;;5090296;28;20020;-86
2021/05/02 04:07:55;;;;;;;43.92;25.60;;;;;;;;;;5087659;28;20016;-86
2021/05/02 04:10:21;;;;;;;44.70;25.65;;;;;;;;;;5065825;28;20020;-86
2021/05/02 04:12:46;;;;;;;50.60;28.10;;;;;;;;;;5068054;28;20035;-87
2021/05/02 04:15:12;;;;;;;53.58;26.63;;;;;;;;;;5069815;28;20139;-86
2021/05/02 04:17:37;;;;;;;46.08;26.77;;;;;;;;;;5068517;28;20030;-85
2021/05/02 04:20:02;;;;;;;48.10;26.13;;;;;;;;;;5051318;28;20028;-86
2021/05/02 04:22:30;;;;;;;52.75;27.50;;;;;;;;;;5047438;28;20032;-86
2021/05/02 04:24:55;;;;;;;49.30;26.33;;;;;;;;;;5051807;28;20017;-86
2021/05/02 04:27:20;;;;;;;48.30;24.25;;;;;;;;;;5051536;28;20016;-86
2021/05/02 04:29:46;;;;;;;42.53;23.02;;;;;;;;;;5067857;28;20021;-86
2021/05/02 04:32:11;;;;;;;43.10;25.48;;;;;;;;;;5050296;28;20024;-86
2021/05/02 04:34:36;;;;;;;47.53;23.92;;;;;;;;;;5050112;28;20028;-87
2021/05/02 04:37:02;;;;;;;56.45;25.45;;;;;;;;;;5042326;28;20651;-87
2021/05/02 04:39:27;;;;;;;46.67;23.30;;;;;;;;;;5068032;28;20028;-85
2021/05/02 04:41:53;;;;;;;45.03;25.08;;;;;;;;;;5051071;28;20111;-87
2021/05/02 04:44:18;;;;;;;50.38;23.52;;;;;;;;;;5050413;28;20479;-86
2021/05/02 04:46:44;;;;;;;48.95;24.27;;;;;;;;;;5068235;28;20021;-85
2021/05/02 04:49:09;;;;;;;41.17;22.45;;;;;;;;;;5050492;28;20024;-87
2021/05/02 04:51:35;;;;;;;40.78;23.73;;;;;;;;;;5049099;28;20025;-86
2021/05/02 04:54:00;;;;;;;38.75;20.80;;;;;;;;;;5050232;28;20017;-86
2021/05/02 04:56:25;;;;;;;41.13;21.15;;;;;;;;;;5050107;28;20020;-86
2021/05/02 04:58:50;;;;;;;41.53;20.83;;;;;;;;;;5067709;28;20026;-86
2021/05/02 05:01:16;;;;;;;34.67;18.73;;;;;;;;;;5050626;28;20025;-85
2021/05/02 05:03:41;;;;;;;38.22;19.85;;;;;;;;;;5067955;28;21773;-86
2021/05/02 05:06:07;;;;;;;40.08;20.55;;;;;;;;;;5051462;28;20048;-84
2021/05/02 05:08:32;;;;;;;39.63;21.02;;;;;;;;;;5049496;28;20753;-87
2021/05/02 05:10:57;;;;;;;40.65;18.73;;;;;;;;;;5056557;28;20026;-86
2021/05/02 05:13:26;;;;;;;33.22;17.73;;;;;;;;;;5046894;28;20500;-85
2021/05/02 05:15:54;;;;;;;31.02;18.42;;;;;;;;;;5068192;28;20027;-87
2021/05/02 05:18:19;;;;;;;27.45;15.30;;;;;;;;;;5050664;28;20202;-86
2021/05/02 05:20:45;;;;;;;35.20;17.50;;;;;;;;;;5049723;28;20433;-85
2021/05/02 05:23:10;;;;;;;29.17;16.92;;;;;;;;;;5050289;28;20035;-87
2021/05/02 05:25:35;;;;;;;29.02;15.25;;;;;;;;;;5043581;28;20021;-86
2021/05/02 05:28:01;;;;;;;30.73;17.02;;;;;;;;;;5047728;28;20032;-85
2021/05/02 05:30:26;;;;;;;33.10;17.30;;;;;;;;;;5063227;28;20262;-86
2021/05/02 05:32:59;;;;;;;30.85;16.45;;;;;;;;;;5037875;28;20081;-86
2021/05/02 05:35:24;;;;;;;34.22;16.58;;;;;;;;;;5051120;28;20024;-87
2021/05/02 05:37:49;;;;;;;26.33;15.40;;;;;;;;;;5039059;28;20166;-87
2021/05/02 05:40:15;;;;;;;36.50;16.23;;;;;;;;;;5045455;28;20125;-86
2021/05/02 05:42:40;;;;;;;31.88;15.07;;;;;;;;;;5048786;28;20029;-87
2021/05/02 05:45:05;;;;;;;32.10;13.82;;;;;;;;;;5062699;28;20452;-87
2021/05/02 05:47:31;;;;;;;31.15;14.52;;;;;;;;;;5051820;28;20056;-87
2021/05/02 05:49:56;;;;;;;27.92;14.95;;;;;;;;;;5051125;28;20440;-86
2021/05/02 05:52:22;;;;;;;26.15;13.73;;;;;;;;;;5069565;28;20034;-88
2021/05/02 05:54:47;;;;;;;33.50;15.00;;;;;;;;;;5065810;28;20067;-86
2021/05/02 05:57:13;;;;;;;26.30;12.95;;;;;;;;;;5070196;28;20546;-86
2021/05/02 05:59:38;;;;;;;31.20;14.65;;;;;;;;;;5076713;28;20112;-87
2021/05/02 06:02:03;;;;;;;24.20;13.15;;;;;;;;;;5070931;28;20020;-87
2021/05/02 06:04:28;;;;;;;33.70;14.70;;;;;;;;;;5052479;28;20077;-86
2021/05/02 06:06:53;;;;;;;31.30;14.15;;;;;;;;;;5067919;28;20076;-87
2021/05/02 06:09:19;;;;;;;27.92;12.88;;;;;;;;;;5051859;28;20447;-86
2021/05/02 06:11:45;;;;;;;26.63;13.27;;;;;;;;;;5083337;28;20031;-85
2021/05/02 06:14:11;;;;;;;30.00;12.63;;;;;;;;;;5057244;28;20105;-87
2021/05/02 06:16:36;;;;;;;22.85;12.85;;;;;;;;;;5053158;28;20633;-87
2021/05/02 06:19:01;;;;;;;24.25;12.15;;;;;;;;;;5052217;28;20024;-86
2021/05/02 06:21:26;;;;;;;18.83;10.82;;;;;;;;;;5071257;28;20048;-85
2021/05/02 06:23:52;;;;;;;21.17;11.40;;;;;;;;;;5047152;28;20046;-86
2021/05/02 06:26:19;;;;;;;27.20;12.25;;;;;;;;;;5068281;28;20099;-86
2021/05/02 06:28:44;;;;;;;19.80;10.75;;;;;;;;;;5052442;28;20069;-87
2021/05/02 06:31:11;;;;;;;18.70;9.80;;;;;;;;;;5053093;28;20111;-86
2021/05/02 06:33:36;;;;;;;21.13;10.13;;;;;;;;;;5044851;28;20024;-86
2021/05/02 06:36:02;;;;;;;18.55;10.20;;;;;;;;;;5053537;28;20025;-87
2021/05/02 06:38:27;;;;;;;19.17;9.13;;;;;;;;;;5053025;28;20024;-87
2021/05/02 06:40:52;;;;;;;25.13;9.30;;;;;;;;;;5065554;28;20021;-85
2021/05/02 06:43:17;;;;;;;16.88;7.72;;;;;;;;;;5053257;28;20048;-87
2021/05/02 06:45:42;;;;;;;19.75;7.82;;;;;;;;;;5052449;28;20063;-86
2021/05/02 06:48:08;;;;;;;20.13;7.65;;;;;;;;;;5051314;28;20047;-87
2021/05/02 06:50:33;;;;;;;18.48;8.13;;;;;;;;;;5048320;28;20021;-87
2021/05/02 06:52:59;;;;;;;19.80;7.40;;;;;;;;;;5069823;28;20063;-86
2021/05/02 06:55:24;;;;;;;15.38;7.00;;;;;;;;;;5040815;28;20673;-87
2021/05/02 06:57:49;;;;;;;15.02;6.57;;;;;;;;;;5071135;28;20028;-87
2021/05/02 07:00:15;;;;;;;17.00;7.22;;;;;;;;;;5055945;28;20029;-86
2021/05/02 07:02:40;;;;;;;13.50;5.93;;;;;;;;;;5085228;28;20043;-86
2021/05/02 07:05:06;;;;;;;11.35;5.63;;;;;;;;;;5068432;28;20008;-86
2021/05/02 07:07:31;;;;;;;12.95;6.50;;;;;;;;;;5066235;28;20024;-86
2021/05/02 07:09:56;;;;;;;15.20;6.90;;;;;;;;;;5061900;28;20491;-87
2021/05/02 07:12:25;;;;;;;19.05;5.57;;;;;;;;;;5054195;28;20032;-86
2021/05/02 07:14:50;;;;;;;18.60;7.50;;;;;;;;;;5054541;28;20040;-86
2021/05/02 07:17:16;;;;;;;14.48;5.78;;;;;;;;;;5053090;28;20028;-86
2021/05/02 07:19:41;;;;;;;14.68;6.05;;;;;;;;;;5052685;28;20020;-85
2021/05/02 07:22:06;;;;;;;13.13;6.53;;;;;;;;;;5048308;28;20028;-87
2021/05/02 07:24:32;;;;;;;16.25;6.68;;;;;;;;;;5038567;28;20017;-87
2021/05/02 07:26:57;;;;;;;12.93;6.47;;;;;;;;;;5067593;28;20027;-86
2021/05/02 07:29:23;;;;;;;12.52;5.30;;;;;;;;;;5044610;28;21484;-87
2021/05/02 07:31:48;;;;;;;15.77;5.75;;;;;;;;;;5053838;28;20025;-87
2021/05/02 07:34:13;;;;;;;18.85;5.57;;;;;;;;;;5030256;28;20029;-87
2021/05/02 07:36:39;;;;;;;10.90;6.25;;;;;;;;;;5053266;28;20032;-87
2021/05/02 07:39:07;;;;;;;10.82;4.93;;;;;;;;;;5038386;28;20123;-86
2021/05/02 07:41:33;;;;;;;12.82;4.30;;;;;;;;;;5043983;28;20555;-87
2021/05/02 07:43:58;;;;;;;5.10;2.92;;;;;;;;;;5051368;28;20108;-85
2021/05/02 07:46:23;;;;;;;15.45;3.42;;;;;;;;;;5069721;28;20043;-86
2021/05/02 07:48:49;;;;;;;10.63;3.35;;;;;;;;;;5068824;28;20530;-87
2021/05/02 07:51:14;;;;;;;12.77;3.72;;;;;;;;;;5068402;28;20033;-86
2021/05/02 07:53:39;;;;;;;12.30;3.10;;;;;;;;;;5045226;28;20104;-87
2021/05/02 07:56:05;;;;;;;15.13;3.35;;;;;;;;;;5064370;28;20391;-86
2021/05/02 07:58:30;;;;;;;12.82;3.30;;;;;;;;;;5052299;28;20032;-87
2021/05/02 08:00:55;;;;;;;11.95;3.25;;;;;;;;;;5048194;28;20031;-88
2021/05/02 08:03:21;;;;;;;7.10;2.60;;;;;;;;;;5038339;28;20035;-87
2021/05/02 08:05:47;;;;;;;12.63;2.95;;;;;;;;;;5035240;28;20023;-86
2021/05/02 08:08:12;;;;;;;18.38;3.42;;;;;;;;;;5039664;28;20024;-86
2021/05/02 08:10:37;;;;;;;11.73;3.10;;;;;;;;;;5065927;28;20028;-86
2021/05/02 08:13:02;;;;;;;8.20;2.90;;;;;;;;;;5048111;28;20032;-87
2021/05/02 08:15:28;;;;;;;8.43;2.90;;;;;;;;;;5065786;28;20263;-87
2021/05/02 08:17:53;;;;;;;9.15;3.33;;;;;;;;;;5032551;28;20028;-87
2021/05/02 08:20:18;;;;;;;8.90;3.10;;;;;;;;;;5043666;28;20028;-87
2021/05/02 08:22:43;;;;;;;8.65;3.35;;;;;;;;;;5028663;28;20063;-86
2021/05/02 08:25:12;;;;;;;9.32;3.13;;;;;;;;;;5040675;28;20024;-86
2021/05/02 08:27:43;;;;;;;8.90;3.22;;;;;;;;;;5065154;28;20025;-87
2021/05/02 08:30:08;;;;;;;12.27;3.55;;;;;;;;;;5047324;28;20473;-87
2021/05/02 08:32:34;;;;;;;10.30;3.42;;;;;;;;;;5048004;28;20036;-86
2021/05/02 08:35:01;;;;;;;8.48;3.00;;;;;;;;;;5056284;28;20024;-86
2021/05/02 08:37:27;;;;;;;10.80;4.00;;;;;;;;;;5082154;28;20419;-86
2021/05/02 08:39:52;;;;;;;12.82;3.75;;;;;;;;;;5061495;28;20105;-86
2021/05/02 08:42:17;;;;;;;8.27;3.40;;;;;;;;;;5044120;28;20029;-86
2021/05/02 08:44:42;;;;;;;6.47;2.78;;;;;;;;;;5066176;28;20067;-86
2021/05/02 08:47:07;;;;;;;12.77;3.25;;;;;;;;;;5058786;28;20154;-87
2021/05/02 08:49:33;;;;;;;13.68;3.25;;;;;;;;;;5059022;28;20027;-87
2021/05/02 08:51:58;;;;;;;10.10;3.35;;;;;;;;;;5060721;28;20024;-87
2021/05/02 08:54:24;;;;;;;7.20;3.28;;;;;;;;;;5041272;28;20024;-86
2021/05/02 08:56:56;;;;;;;10.65;2.92;;;;;;;;;;5056787;28;20020;-88
2021/05/02 08:59:21;;;;;;;7.40;3.40;;;;;;;;;;5056556;28;20047;-87
2021/05/02 09:01:46;;;;;;;12.45;3.17;;;;;;;;;;5037072;28;20020;-88
2021/05/02 09:04:12;;;;;;;11.45;3.00;;;;;;;;;;5066631;28;20024;-87
2021/05/02 09:06:39;;;;;;;10.60;3.30;;;;;;;;;;5046578;28;20020;-87
2021/05/02 09:09:05;;;;;;;16.20;3.05;;;;;;;;;;5067433;28;20557;-87
2021/05/02 09:11:40;;;;;;;7.05;3.10;;;;;;;;;;5072274;28;20064;-87
2021/05/02 09:14:08;;;;;;;8.68;3.60;;;;;;;;;;5071114;28;20051;-88
2021/05/02 09:16:46;;;;;;;11.43;3.03;;;;;;;;;;5067166;28;20892;-87
2021/05/02 09:19:19;;;;;;;13.02;4.07;;;;;;;;;;5034670;28;20028;-89
2021/05/02 09:21:44;;;;;;;10.30;3.97;;;;;;;;;;5058011;28;20427;-86
2021/05/02 09:24:22;;;;;;;9.43;4.18;;;;;;;;;;5060450;28;20031;-86
2021/05/02 09:27:01;;;;;;;8.93;3.38;;;;;;;;;;5068437;28;20426;-86
2021/05/02 09:29:28;;;;;;;6.38;3.55;;;;;;;;;;5070606;28;20028;-88
2021/05/02 09:31:53;;;;;;;6.72;3.45;;;;;;;;;;5056389;28;20032;-88
2021/05/02 09:34:21;;;;;;;12.75;3.35;;;;;;;;;;5053935;28;20043;-87
2021/05/02 09:37:07;;;;;;;18.35;4.55;;;;;;;;;;5053818;28;20032;-87
2021/05/02 09:39:52;;;;;;;10.63;3.20;;;;;;;;;;5068659;28;20226;-87
2021/05/02 09:42:19;;;;;;;10.57;3.03;;;;;;;;;;5074356;28;20303;-87
2021/05/02 09:44:49;;;;;;;5.28;2.85;;;;;;;;;;5056141;28;20031;-88
2021/05/02 09:47:23;;;;;;;9.57;2.95;;;;;;;;;;5071207;28;20020;-88
2021/05/02 09:50:04;;;;;;;6.93;2.75;;;;;;;;;;5073161;28;20480;-87
2021/05/02 09:52:43;;;;;;;9.07;2.67;;;;;;;;;;5069329;28;20432;-86
2021/05/02 09:55:25;;;;;;;4.53;2.80;;;;;;;;;;5046157;28;20021;-88
2021/05/02 09:58:19;;;;;;;15.45;3.20;;;;;;;;;;5054610;28;20203;-88
2021/05/02 10:00:45;;;;;;;11.02;2.97;;;;;;;;;;5020291;28;20032;-88
2021/05/02 10:03:14;;;;;;;18.88;4.40;;;;;;;;;;5056123;28;20058;-86
2021/05/02 10:06:00;;;;;;;6.38;3.30;;;;;;;;;;5070514;28;20017;-87
2021/05/02 10:08:29;;;;;;;9.68;3.38;;;;;;;;;;5055698;28;20416;-88
2021/05/02 10:10:55;;;;;;;8.15;3.00;;;;;;;;;;5064778;28;20492;-88
2021/05/02 10:13:21;;;;;;;6.50;2.20;;;;;;;;;;5047128;28;20123;-86
2021/05/02 10:15:46;;;;;;;7.05;2.30;;;;;;;;;;5050986;28;20571;-86
2021/05/02 10:18:11;;;;;;;6.15;2.47;;;;;;;;;;5069495;28;20036;-86
2021/05/02 10:20:36;;;;;;;11.55;4.18;;;;;;;;;;5040471;28;20507;-86
2021/05/02 10:23:03;;;;;;;16.70;2.70;;;;;;;;;;5044814;28;20024;-86
2021/05/02 10:25:28;;;;;;;7.10;3.00;;;;;;;;;;5046866;28;20016;-86
2021/05/02 10:27:54;;;;;;;6.72;2.75;;;;;;;;;;5049846;28;20061;-86
2021/05/02 10:30:31;;;;;;;13.70;3.20;;;;;;;;;;5050264;28;20024;-87
2021/05/02 10:33:15;;;;;;;4.82;2.42;;;;;;;;;;5051527;28;20031;-87
2021/05/02 10:35:44;;;;;;;7.25;2.55;;;;;;;;;;5068839;28;20020;-86
2021/05/02 10:38:10;;;;;;;4.13;1.90;;;;;;;;;;5047570;28;20116;-86
2021/05/02 10:40:37;;;;;;;4.05;1.80;;;;;;;;;;5043093;28;20662;-86
2021/05/02 10:43:05;;;;;;;10.23;2.00;;;;;;;;;;5049889;28;20025;-86
2021/05/02 10:45:31;;;;;;;5.90;2.25;;;;;;;;;;5062317;28;20030;-87
2021/05/02 10:48:08;;;;;;;5.82;3.00;;;;;;;;;;5065113;28;20020;-86
2021/05/02 10:50:35;;;;;;;9.32;2.20;;;;;;;;;;5049924;28;20024;-86
2021/05/02 10:53:09;;;;;;;4.40;1.80;;;;;;;;;;5048268;28;20020;-86
2021/05/02 10:55:55;;;;;;;6.20;2.35;;;;;;;;;;5061378;28;20013;-88
2021/05/02 10:58:27;;;;;;;15.57;3.63;;;;;;;;;;5054149;28;20032;-90
2021/05/02 11:00:58;;;;;;;10.32;2.53;;;;;;;;;;5075157;28;20039;-89
2021/05/02 11:03:50;;;;;;;7.55;2.20;;;;;;;;;;5055582;28;20052;-91
2021/05/02 11:06:36;;;;;;;5.70;2.50;;;;;;;;;;5052708;28;20036;-90
2021/05/02 11:09:22;;;;;;;7.75;1.90;;;;;;;;;;5055548;28;20021;-90
2021/05/02 11:11:53;;;;;;;5.60;2.00;;;;;;;;;;5049117;28;20021;-90
2021/05/02 11:14:21;;;;;;;3.70;1.85;;;;;;;;;;5044604;28;20388;-89
2021/05/02 11:16:58;;;;;;;5.50;2.15;;;;;;;;;;5055822;28;20024;-90
2021/05/02 11:19:32;;;;;;;4.45;1.77;;;;;;;;;;5054760;28;20032;-88
2021/05/02 11:22:01;;;;;;;2.30;1.50;;;;;;;;;;5055245;28;20484;-89
2021/05/02 11:24:51;;;;;;;10.13;2.13;;;;;;;;;;5054253;28;20032;-90
2021/05/02 11:30:01;;;;;;;5.40;1.92;;;;;;;;;;5072593;28;20270;-91
2021/05/02 11:32:26;;;;;;;10.65;2.40;;;;;;;;;;5043687;28;20075;-90
2021/05/02 11:34:53;;;;;;;7.65;2.55;;;;;;;;;;5055501;28;20020;-90
2021/05/02 11:37:37;;;;;;;7.13;2.35;;;;;;;;;;5066495;28;20039;-91
2021/05/02 11:40:31;;;;;;;3.95;1.88;;;;;;;;;;5053203;28;20021;-89
2021/05/02 11:43:00;;;;;;;8.48;2.10;;;;;;;;;;5047110;28;20033;-90
2021/05/02 11:45:29;;;;;;;10.35;3.33;;;;;;;;;;5054238;28;20131;-90
2021/05/02 11:47:54;;;;;;;7.88;2.63;;;;;;;;;;5053676;28;20020;-90
2021/05/02 11:50:21;;;;;;;6.22;2.40;;;;;;;;;;5053992;28;20017;-90
2021/05/02 11:52:55;;;;;;;6.53;2.20;;;;;;;;;;5053854;28;20030;-90
2021/05/02 11:55:27;;;;;;;4.53;1.98;;;;;;;;;;5053513;28;20038;-89
2021/05/02 11:57:54;;;;;;;15.13;2.38;;;;;;;;;;5053288;28;20074;-89
2021/05/02 12:00:38;;;;;;;6.28;2.08;;;;;;;;;;5053294;28;20020;-90
2021/05/02 12:03:04;;;;;;;6.65;2.65;;;;;;;;;;5053396;28;20064;-90
2021/05/02 12:05:30;;;;;;;7.07;2.70;;;;;;;;;;5046556;28;20024;-90
2021/05/02 12:08:11;;;;;;;9.93;2.75;;;;;;;;;;5052326;28;20456;-89
2021/05/02 12:10:37;;;;;;;8.40;2.22;;;;;;;;;;5060821;28;20040;-89
2021/05/02 12:13:03;;;;;;;4.97;2.35;;;;;;;;;;5052244;28;20051;-88
2021/05/02 12:15:28;;;;;;;6.20;2.33;;;;;;;;;;5051583;28;20070;-88
2021/05/02 12:17:53;;;;;;;7.75;2.20;;;;;;;;;;5050187;28;20024;-87
2021/05/02 12:20:22;;;;;;;3.95;2.15;;;;;;;;;;5051256;28;20476;-88
2021/05/02 12:22:48;;;;;;;8.05;2.25;;;;;;;;;;5069510;28;20535;-88
2021/05/02 12:25:14;;;;;;;4.22;1.65;;;;;;;;;;5067913;28;20056;-90
2021/05/02 12:27:39;;;;;;;8.95;2.03;;;;;;;;;;5050679;28;20053;-91
2021/05/02 12:30:04;;;;;;;5.85;2.08;;;;;;;;;;5062852;28;20491;-87
2021/05/02 12:32:30;;;;;;;4.35;1.70;;;;;;;;;;5043875;28;20025;-88
2021/05/02 12:34:55;;;;;;;6.00;2.15;;;;;;;;;;5039147;28;20028;-87
2021/05/02 12:37:23;;;;;;;5.40;2.17;;;;;;;;;;5049037;28;20008;-88
2021/05/02 12:39:52;;;;;;;4.05;1.83;;;;;;;;;;5038254;28;20027;-87
2021/05/02 12:42:33;;;;;;;7.20;2.17;;;;;;;;;;5037608;28;20566;-88
2021/05/02 12:44:59;;;;;;;5.75;1.92;;;;;;;;;;5056794;28;20020;-88
2021/05/02 12:47:26;;;;;;;5.97;2.38;;;;;;;;;;5065499;28;20025;-89
2021/05/02 12:49:52;;;;;;;2.55;1.75;;;;;;;;;;5049934;28;20094;-89
2021/05/02 12:52:30;;;;;;;6.22;2.17;;;;;;;;;;5040378;28;20476;-90
2021/05/02 12:54:56;;;;;;;7.60;1.95;;;;;;;;;;5066112;28;20028;-89
2021/05/02 12:57:25;;;;;;;4.93;1.77;;;;;;;;;;5069757;28;20380;-89
2021/05/02 13:02:19;;;;;;;4.35;1.65;;;;;;;;;;5059405;28;20020;-87
2021/05/02 13:04:55;;;;;;;2.33;1.27;;;;;;;;;;5060763;28;20469;-86
2021/05/02 13:07:37;;;;;;;3.50;1.23;;;;;;;;;;5043167;28;20032;-85
2021/05/02 13:10:04;;;;;;;7.93;2.00;;;;;;;;;;5067498;28;20028;-86
2021/05/02 13:12:46;;;;;;;5.55;1.60;;;;;;;;;;5048552;28;20032;-87
2021/05/02 13:15:11;;;;;;;4.70;1.70;;;;;;;;;;5061962;28;20564;-85
2021/05/02 13:17:37;;;;;;;4.80;1.70;;;;;;;;;;5067993;28;20104;-84
2021/05/02 13:20:03;;;;;;;2.22;1.67;;;;;;;;;;5049307;28;20029;-86
2021/05/02 13:22:29;;;;;;;5.40;1.73;;;;;;;;;;5050653;28;20724;-86
2021/05/02 13:24:58;;;;;;;7.13;1.95;;;;;;;;;;5068526;28;20028;-86
2021/05/02 13:27:32;;;;;;;6.35;2.00;;;;;;;;;;5045267;28;20078;-87
2021/05/02 13:29:58;;;;;;;7.20;2.28;;;;;;;;;;5046441;28;20031;-86
2021/05/02 13:32:23;;;;;;;4.65;2.03;;;;;;;;;;5050243;28;20033;-85
2021/05/02 13:34:48;;;;;;;5.07;1.85;;;;;;;;;;5068992;28;20020;-87
2021/05/02 13:37:13;;;;;;;4.30;1.95;;;;;;;;;;5050294;28;20027;-84
2021/05/02 13:39:38;;;;;;;5.03;1.80;;;;;;;;;;5049167;28;20038;-87
2021/05/02 13:42:05;;;;;;;3.45;1.33;;;;;;;;;;5068071;28;20569;-87
2021/05/02 13:44:30;;;;;;;6.55;1.75;;;;;;;;;;5068370;28;20054;-86
2021/05/02 13:46:56;;;;;;;4.72;1.85;;;;;;;;;;5065850;28;20017;-86
2021/05/02 13:49:22;;;;;;;7.32;2.03;;;;;;;;;;5059016;28;20013;-88
2021/05/02 13:51:49;;;;;;;5.55;2.50;;;;;;;;;;5049426;28;20392;-87
2021/05/02 13:54:14;;;;;;;8.02;2.13;;;;;;;;;;5053082;28;20021;-85
2021/05/02 13:56:40;;;;;;;5.60;2.05;;;;;;;;;;5044503;28;20070;-86
2021/05/02 13:59:05;;;;;;;10.90;3.20;;;;;;;;;;5072605;28;20012;-87
2021/05/02 14:01:31;;;;;;;8.25;2.22;;;;;;;;;;5045757;28;20009;-85
2021/05/02 14:03:56;;;;;;;7.00;1.98;;;;;;;;;;5045214;28;20101;-85
2021/05/02 14:06:22;;;;;;;8.75;2.70;;;;;;;;;;5051521;28;20016;-87
2021/05/02 14:08:47;;;;;;;5.70;2.05;;;;;;;;;;5046939;28;20514;-85
2021/05/02 14:11:13;;;;;;;7.00;1.83;;;;;;;;;;5048198;28;20024;-85
2021/05/02 14:13:38;;;;;;;4.13;1.58;;;;;;;;;;5050187;28;20061;-85
2021/05/02 14:16:04;;;;;;;3.15;1.90;;;;;;;;;;5052982;28;20061;-85
2021/05/02 14:18:29;;;;;;;6.40;2.15;;;;;;;;;;5047420;28;20025;-84
2021/05/02 14:20:55;;;;;;;7.90;2.70;;;;;;;;;;5055582;28;20020;-85
2021/05/02 14:23:20;;;;;;;7.07;2.30;;;;;;;;;;5040313;28;20107;-85
2021/05/02 14:25:46;;;;;;;11.25;2.40;;;;;;;;;;5055315;28;20012;-85
2021/05/02 14:28:11;;;;;;;5.53;2.20;;;;;;;;;;5056748;28;20020;-85
2021/05/02 14:30:39;;;;;;;11.30;4.30;;;;;;;;;;5072179;28;20016;-86
2021/05/02 14:33:05;;;;;;;4.72;1.55;;;;;;;;;;5049678;28;20530;-86
2021/05/02 14:35:30;;;;;;;8.85;1.90;;;;;;;;;;5072984;28;20033;-86
2021/05/02 14:37:55;;;;;;;7.43;2.73;;;;;;;;;;5063289;28;20021;-86